sensor_id;sensor_type;location;lat;lon;timestamp;P1;durP1;ratioP1;P2;durP2;ratioP2
65583;SDS011;62116;43.582;1.470;2023-05-10T00:01:15;15.93;;;2.50;;
65583;SDS011;62116;43.582;1.470;2023-05-10T00:03:40;12.80;;;2.50;;
65583;SDS011;62116;43.582;1.470;2023-05-10T00:06:06;13.30;;;2.55;;
65583;SDS011;62116;43.582;1.470;2023-05-10T00:08:32;13.75;;;2.97;;
65583;SDS011;62116;43.582;1.470;2023-05-10T00:10:57;13.10;;;2.65;;
65583;SDS011;62116;43.582;1.470;2023-05-10T00:13:22;14.10;;;2.80;;
65583;SDS011;62116;43.582;1.470;2023-05-10T00:15:48;10.43;;;2.50;;
65583;SDS011;62116;43.582;1.470;2023-05-10T00:18:13;18.30;;;2.97;;
65583;SDS011;62116;43.582;1.470;2023-05-10T00:20:39;14.95;;;2.55;;
65583;SDS011;62116;43.582;1.470;2023-05-10T00:23:04;19.38;;;3.35;;
65583;SDS011;62116;43.582;1.470;2023-05-10T00:25:30;12.75;;;2.50;;
65583;SDS011;62116;43.582;1.470;2023-05-10T00:27:55;17.67;;;3.05;;
65583;SDS011;62116;43.582;1.470;2023-05-10T00:30:22;15.85;;;2.72;;
65583;SDS011;62116;43.582;1.470;2023-05-10T00:32:47;18.27;;;3.00;;
65583;SDS011;62116;43.582;1.470;2023-05-10T00:35:14;17.50;;;3.00;;
65583;SDS011;62116;43.582;1.470;2023-05-10T00:37:40;12.80;;;2.47;;
65583;SDS011;62116;43.582;1.470;2023-05-10T00:40:06;21.85;;;3.22;;
65583;SDS011;62116;43.582;1.470;2023-05-10T00:42:32;19.63;;;3.13;;
65583;SDS011;62116;43.582;1.470;2023-05-10T00:44:58;18.65;;;3.45;;
65583;SDS011;62116;43.582;1.470;2023-05-10T00:47:23;18.48;;;2.80;;
65583;SDS011;62116;43.582;1.470;2023-05-10T00:49:49;24.05;;;3.63;;
65583;SDS011;62116;43.582;1.470;2023-05-10T00:52:15;15.02;;;2.65;;
65583;SDS011;62116;43.582;1.470;2023-05-10T00:54:40;19.70;;;3.30;;
65583;SDS011;62116;43.582;1.470;2023-05-10T00:57:06;24.17;;;3.13;;
65583;SDS011;62116;43.582;1.470;2023-05-10T00:59:32;18.73;;;3.22;;
65583;SDS011;62116;43.582;1.470;2023-05-10T01:01:58;20.88;;;3.55;;
65583;SDS011;62116;43.582;1.470;2023-05-10T01:04:23;19.92;;;3.28;;
65583;SDS011;62116;43.582;1.470;2023-05-10T01:06:50;25.23;;;3.45;;
65583;SDS011;62116;43.582;1.470;2023-05-10T01:09:19;21.33;;;3.50;;
65583;SDS011;62116;43.582;1.470;2023-05-10T01:11:45;19.90;;;3.28;;
65583;SDS011;62116;43.582;1.470;2023-05-10T01:14:11;21.70;;;3.47;;
65583;SDS011;62116;43.582;1.470;2023-05-10T01:16:40;23.25;;;2.90;;
65583;SDS011;62116;43.582;1.470;2023-05-10T01:19:12;18.33;;;2.65;;
65583;SDS011;62116;43.582;1.470;2023-05-10T01:24:40;15.48;;;3.03;;
65583;SDS011;62116;43.582;1.470;2023-05-10T01:27:38;17.52;;;3.00;;
65583;SDS011;62116;43.582;1.470;2023-05-10T01:33:23;16.80;;;3.50;;
65583;SDS011;62116;43.582;1.470;2023-05-10T01:38:41;18.13;;;3.28;;
65583;SDS011;62116;43.582;1.470;2023-05-10T01:44:58;15.45;;;3.13;;
65583;SDS011;62116;43.582;1.470;2023-05-10T01:47:10;19.10;;;3.13;;
65583;SDS011;62116;43.582;1.470;2023-05-10T01:49:43;16.58;;;2.80;;
65583;SDS011;62116;43.582;1.470;2023-05-10T01:52:14;15.48;;;2.50;;
65583;SDS011;62116;43.582;1.470;2023-05-10T01:54:59;18.58;;;2.67;;
65583;SDS011;62116;43.582;1.470;2023-05-10T01:57:29;13.95;;;2.40;;
65583;SDS011;62116;43.582;1.470;2023-05-10T02:00:03;14.35;;;2.42;;
65583;SDS011;62116;43.582;1.470;2023-05-10T02:02:30;18.48;;;2.75;;
65583;SDS011;62116;43.582;1.470;2023-05-10T02:05:01;17.10;;;2.75;;
65583;SDS011;62116;43.582;1.470;2023-05-10T02:07:30;20.33;;;2.53;;
65583;SDS011;62116;43.582;1.470;2023-05-10T02:09:58;14.77;;;2.65;;
65583;SDS011;62116;43.582;1.470;2023-05-10T02:12:24;14.77;;;2.83;;
65583;SDS011;62116;43.582;1.470;2023-05-10T02:14:50;14.60;;;2.28;;
65583;SDS011;62116;43.582;1.470;2023-05-10T02:17:17;15.43;;;2.38;;
65583;SDS011;62116;43.582;1.470;2023-05-10T02:19:43;14.88;;;3.05;;
65583;SDS011;62116;43.582;1.470;2023-05-10T02:22:11;18.05;;;2.40;;
65583;SDS011;62116;43.582;1.470;2023-05-10T02:24:37;15.88;;;2.20;;
65583;SDS011;62116;43.582;1.470;2023-05-10T02:27:04;14.43;;;2.25;;
65583;SDS011;62116;43.582;1.470;2023-05-10T02:29:31;17.27;;;2.42;;
65583;SDS011;62116;43.582;1.470;2023-05-10T02:31:58;20.00;;;3.20;;
65583;SDS011;62116;43.582;1.470;2023-05-10T02:34:27;16.05;;;2.95;;
65583;SDS011;62116;43.582;1.470;2023-05-10T02:36:54;13.52;;;2.55;;
65583;SDS011;62116;43.582;1.470;2023-05-10T02:39:21;17.23;;;2.60;;
65583;SDS011;62116;43.582;1.470;2023-05-10T02:41:47;21.77;;;2.40;;
65583;SDS011;62116;43.582;1.470;2023-05-10T02:44:14;14.00;;;2.40;;
65583;SDS011;62116;43.582;1.470;2023-05-10T02:46:40;22.58;;;2.85;;
65583;SDS011;62116;43.582;1.470;2023-05-10T02:49:06;15.43;;;2.30;;
65583;SDS011;62116;43.582;1.470;2023-05-10T02:51:34;16.92;;;2.83;;
65583;SDS011;62116;43.582;1.470;2023-05-10T02:54:04;13.60;;;2.50;;
65583;SDS011;62116;43.582;1.470;2023-05-10T02:56:35;16.25;;;2.13;;
65583;SDS011;62116;43.582;1.470;2023-05-10T02:59:04;15.77;;;2.15;;
65583;SDS011;62116;43.582;1.470;2023-05-10T03:01:30;14.95;;;2.55;;
65583;SDS011;62116;43.582;1.470;2023-05-10T03:03:55;16.25;;;2.40;;
65583;SDS011;62116;43.582;1.470;2023-05-10T03:06:21;16.55;;;2.50;;
65583;SDS011;62116;43.582;1.470;2023-05-10T03:08:46;16.70;;;2.60;;
65583;SDS011;62116;43.582;1.470;2023-05-10T03:11:28;19.63;;;2.58;;
65583;SDS011;62116;43.582;1.470;2023-05-10T03:17:11;13.82;;;2.08;;
65583;SDS011;62116;43.582;1.470;2023-05-10T03:22:16;17.33;;;2.15;;
65583;SDS011;62116;43.582;1.470;2023-05-10T03:24:49;9.20;;;1.90;;
65583;SDS011;62116;43.582;1.470;2023-05-10T03:27:16;12.13;;;2.25;;
65583;SDS011;62116;43.582;1.470;2023-05-10T03:29:42;13.02;;;2.15;;
65583;SDS011;62116;43.582;1.470;2023-05-10T03:32:09;14.63;;;2.10;;
65583;SDS011;62116;43.582;1.470;2023-05-10T03:34:35;11.70;;;1.80;;
65583;SDS011;62116;43.582;1.470;2023-05-10T03:37:07;11.35;;;1.63;;
65583;SDS011;62116;43.582;1.470;2023-05-10T03:39:32;10.18;;;1.80;;
65583;SDS011;62116;43.582;1.470;2023-05-10T03:41:58;9.90;;;1.90;;
65583;SDS011;62116;43.582;1.470;2023-05-10T03:44:23;12.65;;;1.92;;
65583;SDS011;62116;43.582;1.470;2023-05-10T03:46:49;13.27;;;1.73;;
65583;SDS011;62116;43.582;1.470;2023-05-10T03:49:14;12.43;;;1.90;;
65583;SDS011;62116;43.582;1.470;2023-05-10T03:51:40;8.52;;;1.42;;
65583;SDS011;62116;43.582;1.470;2023-05-10T03:54:05;15.23;;;1.90;;
65583;SDS011;62116;43.582;1.470;2023-05-10T03:56:30;12.35;;;1.92;;
65583;SDS011;62116;43.582;1.470;2023-05-10T03:58:56;12.63;;;1.70;;
65583;SDS011;62116;43.582;1.470;2023-05-10T04:01:21;20.58;;;1.90;;
65583;SDS011;62116;43.582;1.470;2023-05-10T04:03:47;12.48;;;2.03;;
65583;SDS011;62116;43.582;1.470;2023-05-10T04:06:15;9.30;;;1.98;;
65583;SDS011;62116;43.582;1.470;2023-05-10T04:08:41;14.63;;;2.17;;
65583;SDS011;62116;43.582;1.470;2023-05-10T04:11:07;13.10;;;1.95;;
65583;SDS011;62116;43.582;1.470;2023-05-10T04:13:34;13.55;;;1.83;;
65583;SDS011;62116;43.582;1.470;2023-05-10T04:16:00;12.07;;;1.70;;
65583;SDS011;62116;43.582;1.470;2023-05-10T04:18:25;14.98;;;1.92;;
65583;SDS011;62116;43.582;1.470;2023-05-10T04:20:51;12.13;;;1.73;;
65583;SDS011;62116;43.582;1.470;2023-05-10T04:23:16;14.68;;;1.83;;
65583;SDS011;62116;43.582;1.470;2023-05-10T04:25:42;14.23;;;1.73;;
65583;SDS011;62116;43.582;1.470;2023-05-10T04:28:07;11.55;;;2.20;;
65583;SDS011;62116;43.582;1.470;2023-05-10T04:30:33;14.60;;;2.10;;
65583;SDS011;62116;43.582;1.470;2023-05-10T04:32:59;14.52;;;2.08;;
65583;SDS011;62116;43.582;1.470;2023-05-10T04:35:26;11.07;;;2.00;;
65583;SDS011;62116;43.582;1.470;2023-05-10T04:37:52;13.60;;;1.98;;
65583;SDS011;62116;43.582;1.470;2023-05-10T04:40:17;13.77;;;1.65;;
65583;SDS011;62116;43.582;1.470;2023-05-10T04:42:43;17.60;;;1.90;;
65583;SDS011;62116;43.582;1.470;2023-05-10T04:45:09;17.17;;;2.08;;
65583;SDS011;62116;43.582;1.470;2023-05-10T04:47:35;11.90;;;1.98;;
65583;SDS011;62116;43.582;1.470;2023-05-10T04:50:01;12.10;;;1.75;;
65583;SDS011;62116;43.582;1.470;2023-05-10T04:52:27;13.35;;;2.10;;
65583;SDS011;62116;43.582;1.470;2023-05-10T04:54:53;13.40;;;2.03;;
65583;SDS011;62116;43.582;1.470;2023-05-10T04:57:18;12.60;;;1.83;;
65583;SDS011;62116;43.582;1.470;2023-05-10T04:59:44;14.73;;;2.03;;
65583;SDS011;62116;43.582;1.470;2023-05-10T05:02:09;11.10;;;1.92;;
65583;SDS011;62116;43.582;1.470;2023-05-10T05:04:34;11.68;;;1.90;;
65583;SDS011;62116;43.582;1.470;2023-05-10T05:07:00;9.93;;;1.75;;
65583;SDS011;62116;43.582;1.470;2023-05-10T05:09:25;11.50;;;1.90;;
65583;SDS011;62116;43.582;1.470;2023-05-10T05:11:50;12.65;;;1.75;;
65583;SDS011;62116;43.582;1.470;2023-05-10T05:14:16;13.00;;;2.20;;
65583;SDS011;62116;43.582;1.470;2023-05-10T05:16:41;11.73;;;2.15;;
65583;SDS011;62116;43.582;1.470;2023-05-10T05:19:07;19.65;;;2.63;;
65583;SDS011;62116;43.582;1.470;2023-05-10T05:21:32;15.63;;;2.00;;
65583;SDS011;62116;43.582;1.470;2023-05-10T05:23:58;15.48;;;2.78;;
65583;SDS011;62116;43.582;1.470;2023-05-10T05:26:23;17.08;;;2.00;;
65583;SDS011;62116;43.582;1.470;2023-05-10T05:28:48;18.63;;;2.30;;
65583;SDS011;62116;43.582;1.470;2023-05-10T05:31:17;14.48;;;2.28;;
65583;SDS011;62116;43.582;1.470;2023-05-10T05:33:43;12.00;;;2.30;;
65583;SDS011;62116;43.582;1.470;2023-05-10T05:36:08;10.63;;;2.35;;
65583;SDS011;62116;43.582;1.470;2023-05-10T05:38:34;19.83;;;2.33;;
65583;SDS011;62116;43.582;1.470;2023-05-10T05:40:59;19.13;;;2.50;;
65583;SDS011;62116;43.582;1.470;2023-05-10T05:43:25;13.70;;;2.38;;
65583;SDS011;62116;43.582;1.470;2023-05-10T05:45:52;14.60;;;2.00;;
65583;SDS011;62116;43.582;1.470;2023-05-10T05:48:18;14.77;;;2.70;;
65583;SDS011;62116;43.582;1.470;2023-05-10T05:50:44;16.42;;;2.05;;
65583;SDS011;62116;43.582;1.470;2023-05-10T05:53:10;15.05;;;2.00;;
65583;SDS011;62116;43.582;1.470;2023-05-10T05:55:36;15.07;;;2.42;;
65583;SDS011;62116;43.582;1.470;2023-05-10T06:00:59;19.30;;;2.13;;
65583;SDS011;62116;43.582;1.470;2023-05-10T06:03:25;12.25;;;2.08;;
65583;SDS011;62116;43.582;1.470;2023-05-10T06:05:50;17.70;;;2.63;;
65583;SDS011;62116;43.582;1.470;2023-05-10T06:08:16;21.02;;;2.20;;
65583;SDS011;62116;43.582;1.470;2023-05-10T06:10:41;15.55;;;2.35;;
65583;SDS011;62116;43.582;1.470;2023-05-10T06:13:06;15.02;;;2.47;;
65583;SDS011;62116;43.582;1.470;2023-05-10T06:15:32;11.48;;;2.20;;
65583;SDS011;62116;43.582;1.470;2023-05-10T06:17:57;18.38;;;2.45;;
65583;SDS011;62116;43.582;1.470;2023-05-10T06:20:23;12.60;;;2.22;;
65583;SDS011;62116;43.582;1.470;2023-05-10T06:22:48;19.13;;;2.83;;
65583;SDS011;62116;43.582;1.470;2023-05-10T06:25:14;22.17;;;2.40;;
65583;SDS011;62116;43.582;1.470;2023-05-10T06:27:39;14.88;;;2.28;;
65583;SDS011;62116;43.582;1.470;2023-05-10T06:30:05;15.73;;;2.22;;
65583;SDS011;62116;43.582;1.470;2023-05-10T06:32:31;16.88;;;2.17;;
65583;SDS011;62116;43.582;1.470;2023-05-10T06:34:56;20.23;;;2.88;;
65583;SDS011;62116;43.582;1.470;2023-05-10T06:37:22;19.33;;;2.35;;
65583;SDS011;62116;43.582;1.470;2023-05-10T06:39:47;21.10;;;2.30;;
65583;SDS011;62116;43.582;1.470;2023-05-10T06:42:13;17.90;;;2.70;;
65583;SDS011;62116;43.582;1.470;2023-05-10T06:44:38;13.25;;;2.08;;
65583;SDS011;62116;43.582;1.470;2023-05-10T06:47:04;13.50;;;2.63;;
65583;SDS011;62116;43.582;1.470;2023-05-10T06:49:29;17.10;;;2.28;;
65583;SDS011;62116;43.582;1.470;2023-05-10T06:51:57;15.65;;;2.03;;
65583;SDS011;62116;43.582;1.470;2023-05-10T06:54:22;18.90;;;2.67;;
65583;SDS011;62116;43.582;1.470;2023-05-10T06:56:48;17.33;;;2.22;;
65583;SDS011;62116;43.582;1.470;2023-05-10T06:59:13;18.50;;;2.28;;
65583;SDS011;62116;43.582;1.470;2023-05-10T07:01:40;17.60;;;2.58;;
65583;SDS011;62116;43.582;1.470;2023-05-10T07:04:05;12.15;;;1.92;;
65583;SDS011;62116;43.582;1.470;2023-05-10T07:06:32;13.88;;;2.25;;
65583;SDS011;62116;43.582;1.470;2023-05-10T07:08:58;13.68;;;2.20;;
65583;SDS011;62116;43.582;1.470;2023-05-10T07:11:24;11.45;;;2.30;;
65583;SDS011;62116;43.582;1.470;2023-05-10T07:13:49;13.07;;;2.10;;
65583;SDS011;62116;43.582;1.470;2023-05-10T07:16:15;13.02;;;2.03;;
65583;SDS011;62116;43.582;1.470;2023-05-10T07:18:40;16.10;;;2.30;;
65583;SDS011;62116;43.582;1.470;2023-05-10T07:21:05;19.77;;;2.13;;
65583;SDS011;62116;43.582;1.470;2023-05-10T07:23:31;14.80;;;2.08;;
65583;SDS011;62116;43.582;1.470;2023-05-10T07:25:56;13.25;;;2.00;;
65583;SDS011;62116;43.582;1.470;2023-05-10T07:28:22;16.50;;;2.13;;
65583;SDS011;62116;43.582;1.470;2023-05-10T07:30:48;11.57;;;2.05;;
65583;SDS011;62116;43.582;1.470;2023-05-10T07:33:14;14.82;;;1.92;;
65583;SDS011;62116;43.582;1.470;2023-05-10T07:35:39;14.27;;;1.98;;
65583;SDS011;62116;43.582;1.470;2023-05-10T07:38:05;18.33;;;2.30;;
65583;SDS011;62116;43.582;1.470;2023-05-10T07:40:31;14.90;;;2.00;;
65583;SDS011;62116;43.582;1.470;2023-05-10T07:42:57;16.08;;;2.58;;
65583;SDS011;62116;43.582;1.470;2023-05-10T07:45:22;11.43;;;2.40;;
65583;SDS011;62116;43.582;1.470;2023-05-10T07:47:48;12.50;;;1.77;;
65583;SDS011;62116;43.582;1.470;2023-05-10T07:50:14;17.15;;;2.30;;
65583;SDS011;62116;43.582;1.470;2023-05-10T07:52:39;21.05;;;2.45;;
65583;SDS011;62116;43.582;1.470;2023-05-10T07:55:05;17.88;;;2.15;;
65583;SDS011;62116;43.582;1.470;2023-05-10T07:57:32;18.48;;;1.92;;
65583;SDS011;62116;43.582;1.470;2023-05-10T07:59:58;12.38;;;2.20;;
65583;SDS011;62116;43.582;1.470;2023-05-10T08:02:24;15.73;;;2.17;;
65583;SDS011;62116;43.582;1.470;2023-05-10T08:04:49;19.20;;;2.15;;
65583;SDS011;62116;43.582;1.470;2023-05-10T08:07:14;19.30;;;2.40;;
65583;SDS011;62116;43.582;1.470;2023-05-10T08:09:40;17.58;;;2.28;;
65583;SDS011;62116;43.582;1.470;2023-05-10T08:12:05;11.68;;;2.00;;
65583;SDS011;62116;43.582;1.470;2023-05-10T08:14:31;14.90;;;2.10;;
65583;SDS011;62116;43.582;1.470;2023-05-10T08:16:56;16.77;;;2.35;;
65583;SDS011;62116;43.582;1.470;2023-05-10T08:19:22;14.63;;;2.42;;
65583;SDS011;62116;43.582;1.470;2023-05-10T08:21:47;13.02;;;1.90;;
65583;SDS011;62116;43.582;1.470;2023-05-10T08:24:13;10.43;;;1.83;;
65583;SDS011;62116;43.582;1.470;2023-05-10T08:26:39;16.63;;;2.28;;
65583;SDS011;62116;43.582;1.470;2023-05-10T08:29:05;13.32;;;2.00;;
65583;SDS011;62116;43.582;1.470;2023-05-10T08:31:30;17.35;;;2.50;;
65583;SDS011;62116;43.582;1.470;2023-05-10T08:33:56;13.95;;;2.05;;
65583;SDS011;62116;43.582;1.470;2023-05-10T08:36:21;19.02;;;2.13;;
65583;SDS011;62116;43.582;1.470;2023-05-10T08:38:51;14.02;;;1.88;;
65583;SDS011;62116;43.582;1.470;2023-05-10T08:41:19;17.92;;;2.35;;
65583;SDS011;62116;43.582;1.470;2023-05-10T08:43:46;12.18;;;1.98;;
65583;SDS011;62116;43.582;1.470;2023-05-10T08:46:12;18.27;;;2.33;;
65583;SDS011;62116;43.582;1.470;2023-05-10T08:48:44;15.85;;;2.22;;
65583;SDS011;62116;43.582;1.470;2023-05-10T08:51:13;15.75;;;2.25;;
65583;SDS011;62116;43.582;1.470;2023-05-10T08:53:39;15.13;;;2.60;;
65583;SDS011;62116;43.582;1.470;2023-05-10T08:56:05;10.45;;;1.77;;
65583;SDS011;62116;43.582;1.470;2023-05-10T08:58:31;14.43;;;1.98;;
65583;SDS011;62116;43.582;1.470;2023-05-10T09:00:56;12.85;;;1.98;;
65583;SDS011;62116;43.582;1.470;2023-05-10T09:03:22;14.07;;;1.85;;
65583;SDS011;62116;43.582;1.470;2023-05-10T09:05:48;10.32;;;1.90;;
65583;SDS011;62116;43.582;1.470;2023-05-10T09:08:14;7.97;;;1.80;;
65583;SDS011;62116;43.582;1.470;2023-05-10T09:10:43;13.82;;;2.00;;
65583;SDS011;62116;43.582;1.470;2023-05-10T09:13:12;11.18;;;1.73;;
65583;SDS011;62116;43.582;1.470;2023-05-10T09:15:40;15.25;;;2.05;;
65583;SDS011;62116;43.582;1.470;2023-05-10T09:18:05;13.00;;;1.73;;
65583;SDS011;62116;43.582;1.470;2023-05-10T09:20:30;14.32;;;2.13;;
65583;SDS011;62116;43.582;1.470;2023-05-10T09:22:56;13.27;;;2.00;;
65583;SDS011;62116;43.582;1.470;2023-05-10T09:25:22;13.05;;;1.80;;
65583;SDS011;62116;43.582;1.470;2023-05-10T09:27:48;11.05;;;1.55;;
65583;SDS011;62116;43.582;1.470;2023-05-10T09:30:17;12.85;;;1.73;;
65583;SDS011;62116;43.582;1.470;2023-05-10T09:32:49;11.52;;;1.80;;
65583;SDS011;62116;43.582;1.470;2023-05-10T09:35:18;10.35;;;1.50;;
65583;SDS011;62116;43.582;1.470;2023-05-10T09:37:52;8.60;;;1.60;;
65583;SDS011;62116;43.582;1.470;2023-05-10T09:40:22;13.05;;;1.80;;
65583;SDS011;62116;43.582;1.470;2023-05-10T09:45:17;8.25;;;1.48;;
65583;SDS011;62116;43.582;1.470;2023-05-10T09:47:42;10.27;;;1.90;;
65583;SDS011;62116;43.582;1.470;2023-05-10T09:50:09;10.05;;;1.63;;
65583;SDS011;62116;43.582;1.470;2023-05-10T09:55:20;8.20;;;1.50;;
65583;SDS011;62116;43.582;1.470;2023-05-10T09:57:47;9.57;;;1.48;;
65583;SDS011;62116;43.582;1.470;2023-05-10T10:00:19;13.00;;;1.90;;
65583;SDS011;62116;43.582;1.470;2023-05-10T10:02:54;11.95;;;2.03;;
65583;SDS011;62116;43.582;1.470;2023-05-10T10:05:21;9.65;;;1.60;;
65583;SDS011;62116;43.582;1.470;2023-05-10T10:07:52;9.57;;;1.60;;
65583;SDS011;62116;43.582;1.470;2023-05-10T10:10:18;11.15;;;1.45;;
65583;SDS011;62116;43.582;1.470;2023-05-10T10:12:43;11.35;;;1.65;;
65583;SDS011;62116;43.582;1.470;2023-05-10T10:15:09;12.45;;;1.60;;
65583;SDS011;62116;43.582;1.470;2023-05-10T10:17:36;12.20;;;1.50;;
65583;SDS011;62116;43.582;1.470;2023-05-10T10:20:03;11.23;;;1.75;;
65583;SDS011;62116;43.582;1.470;2023-05-10T10:22:28;8.23;;;1.73;;
65583;SDS011;62116;43.582;1.470;2023-05-10T10:24:54;8.32;;;1.27;;
65583;SDS011;62116;43.582;1.470;2023-05-10T10:30:01;8.02;;;1.50;;
65583;SDS011;62116;43.582;1.470;2023-05-10T10:35:38;8.75;;;1.30;;
65583;SDS011;62116;43.582;1.470;2023-05-10T10:38:05;14.85;;;1.70;;
65583;SDS011;62116;43.582;1.470;2023-05-10T10:40:33;13.02;;;1.40;;
65583;SDS011;62116;43.582;1.470;2023-05-10T10:43:35;11.27;;;1.67;;
65583;SDS011;62116;43.582;1.470;2023-05-10T10:51:37;7.13;;;1.52;;
65583;SDS011;62116;43.582;1.470;2023-05-10T10:54:09;9.52;;;1.38;;
65583;SDS011;62116;43.582;1.470;2023-05-10T10:56:35;11.07;;;1.73;;
65583;SDS011;62116;43.582;1.470;2023-05-10T10:59:00;9.30;;;1.80;;
65583;SDS011;62116;43.582;1.470;2023-05-10T11:01:26;7.72;;;1.33;;
65583;SDS011;62116;43.582;1.470;2023-05-10T11:06:29;9.80;;;1.63;;
65583;SDS011;62116;43.582;1.470;2023-05-10T11:08:57;8.70;;;2.08;;
65583;SDS011;62116;43.582;1.470;2023-05-10T11:11:22;7.13;;;1.60;;
65583;SDS011;62116;43.582;1.470;2023-05-10T11:13:48;6.97;;;1.50;;
65583;SDS011;62116;43.582;1.470;2023-05-10T11:18:41;10.75;;;1.60;;
65583;SDS011;62116;43.582;1.470;2023-05-10T11:21:47;8.77;;;1.70;;
65583;SDS011;62116;43.582;1.470;2023-05-10T11:24:20;9.23;;;1.92;;
65583;SDS011;62116;43.582;1.470;2023-05-10T11:26:49;12.82;;;2.25;;
65583;SDS011;62116;43.582;1.470;2023-05-10T11:29:15;9.05;;;1.73;;
65583;SDS011;62116;43.582;1.470;2023-05-10T11:31:44;8.60;;;1.60;;
65583;SDS011;62116;43.582;1.470;2023-05-10T11:34:11;6.97;;;1.65;;
65583;SDS011;62116;43.582;1.470;2023-05-10T11:36:37;12.50;;;1.90;;
65583;SDS011;62116;43.582;1.470;2023-05-10T11:39:03;9.90;;;1.70;;
65583;SDS011;62116;43.582;1.470;2023-05-10T11:41:29;10.10;;;1.70;;
65583;SDS011;62116;43.582;1.470;2023-05-10T11:43:56;9.85;;;1.40;;
65583;SDS011;62116;43.582;1.470;2023-05-10T11:46:23;7.97;;;1.50;;
65583;SDS011;62116;43.582;1.470;2023-05-10T11:48:53;7.07;;;1.50;;
65583;SDS011;62116;43.582;1.470;2023-05-10T11:51:22;5.97;;;1.40;;
65583;SDS011;62116;43.582;1.470;2023-05-10T11:53:52;5.75;;;1.17;;
65583;SDS011;62116;43.582;1.470;2023-05-10T11:56:18;8.05;;;1.10;;
65583;SDS011;62116;43.582;1.470;2023-05-10T11:58:52;7.25;;;1.23;;
65583;SDS011;62116;43.582;1.470;2023-05-10T12:01:20;9.57;;;1.40;;
65583;SDS011;62116;43.582;1.470;2023-05-10T12:03:46;6.32;;;1.08;;
65583;SDS011;62116;43.582;1.470;2023-05-10T12:06:11;6.50;;;1.00;;
65583;SDS011;62116;43.582;1.470;2023-05-10T12:08:37;7.97;;;1.67;;
65583;SDS011;62116;43.582;1.470;2023-05-10T12:11:10;6.00;;;1.20;;
65583;SDS011;62116;43.582;1.470;2023-05-10T12:13:40;4.07;;;1.13;;
65583;SDS011;62116;43.582;1.470;2023-05-10T12:18:40;8.77;;;1.10;;
65583;SDS011;62116;43.582;1.470;2023-05-10T12:21:06;5.75;;;1.10;;
65583;SDS011;62116;43.582;1.470;2023-05-10T12:23:31;8.50;;;1.30;;
65583;SDS011;62116;43.582;1.470;2023-05-10T12:26:01;5.78;;;1.02;;
65583;SDS011;62116;43.582;1.470;2023-05-10T12:28:29;5.30;;;1.08;;
65583;SDS011;62116;43.582;1.470;2023-05-10T12:30:56;8.27;;;1.08;;
65583;SDS011;62116;43.582;1.470;2023-05-10T12:33:23;7.88;;;1.35;;
65583;SDS011;62116;43.582;1.470;2023-05-10T12:35:49;8.20;;;1.40;;
65583;SDS011;62116;43.582;1.470;2023-05-10T12:38:26;7.00;;;1.50;;
65583;SDS011;62116;43.582;1.470;2023-05-10T12:40:59;10.75;;;1.40;;
65583;SDS011;62116;43.582;1.470;2023-05-10T12:43:26;6.80;;;1.20;;
65583;SDS011;62116;43.582;1.470;2023-05-10T12:45:52;7.43;;;1.48;;
65583;SDS011;62116;43.582;1.470;2023-05-10T12:48:17;10.00;;;1.55;;
65583;SDS011;62116;43.582;1.470;2023-05-10T12:50:43;10.27;;;1.48;;
65583;SDS011;62116;43.582;1.470;2023-05-10T12:53:09;8.15;;;1.45;;
65583;SDS011;62116;43.582;1.470;2023-05-10T12:55:34;6.25;;;1.17;;
65583;SDS011;62116;43.582;1.470;2023-05-10T12:57:59;7.78;;;1.30;;
65583;SDS011;62116;43.582;1.470;2023-05-10T13:00:25;7.15;;;1.35;;
65583;SDS011;62116;43.582;1.470;2023-05-10T13:02:50;6.70;;;1.23;;
65583;SDS011;62116;43.582;1.470;2023-05-10T13:05:16;7.28;;;1.33;;
65583;SDS011;62116;43.582;1.470;2023-05-10T13:07:41;5.60;;;1.05;;
65583;SDS011;62116;43.582;1.470;2023-05-10T13:10:08;4.55;;;0.80;;
65583;SDS011;62116;43.582;1.470;2023-05-10T13:12:35;6.28;;;1.00;;
65583;SDS011;62116;43.582;1.470;2023-05-10T13:15:00;5.45;;;0.95;;
65583;SDS011;62116;43.582;1.470;2023-05-10T13:17:26;6.57;;;1.20;;
65583;SDS011;62116;43.582;1.470;2023-05-10T13:19:51;12.52;;;1.38;;
65583;SDS011;62116;43.582;1.470;2023-05-10T13:22:17;5.15;;;0.80;;
65583;SDS011;62116;43.582;1.470;2023-05-10T13:24:42;3.67;;;1.08;;
65583;SDS011;62116;43.582;1.470;2023-05-10T13:27:08;3.08;;;0.80;;
65583;SDS011;62116;43.582;1.470;2023-05-10T13:29:33;5.07;;;1.02;;
65583;SDS011;62116;43.582;1.470;2023-05-10T13:31:59;8.45;;;0.93;;
65583;SDS011;62116;43.582;1.470;2023-05-10T13:34:25;6.10;;;1.20;;
65583;SDS011;62116;43.582;1.470;2023-05-10T13:36:50;7.70;;;1.20;;
65583;SDS011;62116;43.582;1.470;2023-05-10T13:39:16;5.35;;;1.08;;
65583;SDS011;62116;43.582;1.470;2023-05-10T13:41:41;3.90;;;0.90;;
65583;SDS011;62116;43.582;1.470;2023-05-10T13:44:07;7.20;;;1.20;;
65583;SDS011;62116;43.582;1.470;2023-05-10T13:46:32;7.38;;;1.73;;
65583;SDS011;62116;43.582;1.470;2023-05-10T13:48:58;9.77;;;1.30;;
65583;SDS011;62116;43.582;1.470;2023-05-10T13:51:23;5.82;;;1.10;;
65583;SDS011;62116;43.582;1.470;2023-05-10T13:53:49;12.88;;;1.60;;
65583;SDS011;62116;43.582;1.470;2023-05-10T13:56:14;8.05;;;1.17;;
65583;SDS011;62116;43.582;1.470;2023-05-10T13:58:40;5.20;;;1.10;;
65583;SDS011;62116;43.582;1.470;2023-05-10T14:01:06;7.55;;;1.55;;
65583;SDS011;62116;43.582;1.470;2023-05-10T14:03:31;6.90;;;1.35;;
65583;SDS011;62116;43.582;1.470;2023-05-10T14:05:57;5.30;;;1.40;;
65583;SDS011;62116;43.582;1.470;2023-05-10T14:08:23;5.47;;;1.02;;
65583;SDS011;62116;43.582;1.470;2023-05-10T14:10:48;5.20;;;1.50;;
65583;SDS011;62116;43.582;1.470;2023-05-10T14:13:14;4.78;;;1.08;;
65583;SDS011;62116;43.582;1.470;2023-05-10T14:15:40;7.38;;;1.13;;
65583;SDS011;62116;43.582;1.470;2023-05-10T14:18:06;6.88;;;1.40;;
65583;SDS011;62116;43.582;1.470;2023-05-10T14:20:31;8.00;;;1.33;;
65583;SDS011;62116;43.582;1.470;2023-05-10T14:22:58;7.20;;;1.33;;
65583;SDS011;62116;43.582;1.470;2023-05-10T14:25:24;9.27;;;1.30;;
65583;SDS011;62116;43.582;1.470;2023-05-10T14:27:50;7.75;;;1.30;;
65583;SDS011;62116;43.582;1.470;2023-05-10T14:30:15;5.72;;;1.20;;
65583;SDS011;62116;43.582;1.470;2023-05-10T14:32:41;6.88;;;1.42;;
65583;SDS011;62116;43.582;1.470;2023-05-10T14:35:07;6.68;;;1.40;;
65583;SDS011;62116;43.582;1.470;2023-05-10T14:37:32;6.18;;;1.20;;
65583;SDS011;62116;43.582;1.470;2023-05-10T14:39:58;8.30;;;1.30;;
65583;SDS011;62116;43.582;1.470;2023-05-10T14:42:23;5.35;;;1.10;;
65583;SDS011;62116;43.582;1.470;2023-05-10T14:44:49;6.22;;;1.33;;
65583;SDS011;62116;43.582;1.470;2023-05-10T14:47:14;7.45;;;1.20;;
65583;SDS011;62116;43.582;1.470;2023-05-10T14:49:40;3.03;;;0.98;;
65583;SDS011;62116;43.582;1.470;2023-05-10T14:52:06;5.28;;;1.38;;
65583;SDS011;62116;43.582;1.470;2023-05-10T14:54:31;5.13;;;1.10;;
65583;SDS011;62116;43.582;1.470;2023-05-10T14:56:58;8.35;;;1.25;;
65583;SDS011;62116;43.582;1.470;2023-05-10T14:59:24;5.80;;;1.40;;
65583;SDS011;62116;43.582;1.470;2023-05-10T15:01:49;4.70;;;1.08;;
65583;SDS011;62116;43.582;1.470;2023-05-10T15:04:15;7.68;;;1.30;;
65583;SDS011;62116;43.582;1.470;2023-05-10T15:06:41;5.25;;;1.30;;
65583;SDS011;62116;43.582;1.470;2023-05-10T15:09:07;5.63;;;1.05;;
65583;SDS011;62116;43.582;1.470;2023-05-10T15:11:32;8.13;;;1.20;;
65583;SDS011;62116;43.582;1.470;2023-05-10T15:13:58;6.35;;;1.30;;
65583;SDS011;62116;43.582;1.470;2023-05-10T15:16:23;6.43;;;1.20;;
65583;SDS011;62116;43.582;1.470;2023-05-10T15:18:49;5.43;;;1.17;;
65583;SDS011;62116;43.582;1.470;2023-05-10T15:21:14;6.80;;;1.13;;